Time;durP1;ratioP1;P1;durP2;ratioP2;P2;SDS_P1;SDS_P2;PMS_P1;PMS_P2;Temp;Humidity;BMP_temperature;BMP_pressure;BME280_temperature;BME280_humidity;BME280_pressure;Samples;Min_cycle;Max_cycle;Signal;HPM_P1;HPM_P2
2021/04/19 00:00:37;;;;;;;11.63;10.53;;;;;21.70;100857.00;;;;2077846;28;20215;-44
2021/04/19 00:01:37;;;;;;;12.07;10.87;;;;;21.70;100843.00;;;;2077651;28;20226;-44
2021/04/19 00:02:38;;;;;;;11.43;10.33;;;;;21.70;100834.00;;;;2074488;28;20238;-44
2021/04/19 00:03:38;;;;;;;12.00;10.80;;;;;21.70;100847.00;;;;2070940;28;20283;-44
2021/04/19 00:04:38;;;;;;;10.53;9.53;;;;;21.70;100836.00;;;;2070746;28;20304;-45
2021/04/19 00:05:39;;;;;;;10.60;9.60;;;;;21.70;100847.00;;;;2069854;28;20227;-44
2021/04/19 00:06:40;;;;;;;10.50;9.53;;;;;21.70;100837.00;;;;2068218;28;20247;-44
2021/04/19 00:07:40;;;;;;;10.40;9.50;;;;;21.70;100835.00;;;;2071621;28;20205;-44
2021/04/19 00:08:41;;;;;;;10.77;9.67;;;;;21.60;100831.00;;;;2070020;28;20335;-44
2021/04/19 00:09:41;;;;;;;11.00;10.00;;;;;21.70;100833.00;;;;2066564;28;20211;-44
2021/04/19 00:10:41;;;;;;;10.83;9.90;;;;;21.70;100838.00;;;;2067441;28;20229;-44
2021/04/19 00:11:42;;;;;;;10.93;9.83;;;;;21.60;100829.00;;;;2069365;28;20243;-44
2021/04/19 00:12:43;;;;;;;10.00;9.10;;;;;21.60;100846.00;;;;2068618;28;20701;-44
2021/04/19 00:13:43;;;;;;;10.53;9.53;;;;;21.60;100825.00;;;;2069023;28;20220;-44
2021/04/19 00:14:43;;;;;;;10.10;9.20;;;;;21.60;100830.00;;;;2069708;28;20455;-44
2021/04/19 00:15:44;;;;;;;11.10;10.10;;;;;21.60;100828.00;;;;2068738;28;20225;-44
2021/04/19 00:16:44;;;;;;;10.77;9.73;;;;;21.60;100832.00;;;;2067915;28;20746;-44
2021/04/19 00:17:45;;;;;;;10.57;9.60;;;;;21.60;100838.00;;;;2069338;28;20424;-44
2021/04/19 00:18:45;;;;;;;10.37;9.47;;;;;21.60;100832.00;;;;2068877;28;20252;-44
2021/04/19 00:19:45;;;;;;;10.00;9.20;;;;;21.60;100834.00;;;;2069780;28;20213;-44
2021/04/19 00:20:46;;;;;;;9.23;8.50;;;;;21.60;100836.00;;;;2069957;28;20218;-43
2021/04/19 00:21:46;;;;;;;9.80;8.97;;;;;21.60;100829.00;;;;2069608;28;20220;-43
2021/04/19 00:22:46;;;;;;;9.07;8.27;;;;;21.60;100837.00;;;;2070087;28;20227;-43
2021/04/19 00:23:47;;;;;;;9.23;8.47;;;;;21.60;100836.00;;;;2069734;28;20211;-44
2021/04/19 00:24:47;;;;;;;9.17;8.27;;;;;21.60;100831.00;;;;2069853;28;20216;-44
2021/04/19 00:25:48;;;;;;;9.83;9.03;;;;;21.60;100835.00;;;;2069678;28;20552;-44
2021/04/19 00:26:48;;;;;;;9.50;8.60;;;;;21.60;100831.00;;;;2066137;28;21090;-44
2021/04/19 00:27:48;;;;;;;9.47;8.67;;;;;21.60;100839.00;;;;2068878;28;20224;-47
2021/04/19 00:28:49;;;;;;;9.20;8.40;;;;;21.60;100836.00;;;;2067164;28;20230;-47
2021/04/19 00:29:49;;;;;;;8.80;8.03;;;;;21.60;100843.00;;;;2075530;28;20499;-47
2021/04/19 00:30:49;;;;;;;9.40;8.50;;;;;21.40;100828.00;;;;2069321;28;20211;-45
2021/04/19 00:31:50;;;;;;;9.70;8.90;;;;;21.60;100839.00;;;;2068394;28;20216;-46
2021/04/19 00:32:50;;;;;;;9.67;8.77;;;;;21.60;100836.00;;;;2070274;28;21231;-45
2021/04/19 00:33:50;;;;;;;8.80;8.00;;;;;21.60;100830.00;;;;2070450;28;20226;-45
2021/04/19 00:34:51;;;;;;;9.00;8.20;;;;;21.60;100834.00;;;;2069598;28;20289;-44
2021/04/19 00:35:51;;;;;;;9.13;8.30;;;;;21.60;100845.00;;;;2065661;28;20216;-44
2021/04/19 00:36:52;;;;;;;8.97;8.20;;;;;21.60;100843.00;;;;2067756;28;20218;-45
2021/04/19 00:37:52;;;;;;;8.77;7.97;;;;;21.60;100834.00;;;;2065655;28;20222;-44
2021/04/19 00:38:52;;;;;;;8.77;8.07;;;;;21.60;100836.00;;;;2069259;28;20747;-44
2021/04/19 00:39:53;;;;;;;8.97;8.07;;;;;21.60;100829.00;;;;2069656;28;21176;-45
2021/04/19 00:40:54;;;;;;;8.70;7.90;;;;;21.60;100835.00;;;;2064908;28;20245;-44
2021/04/19 00:41:54;;;;;;;7.83;7.17;;;;;21.60;100838.00;;;;2068023;28;20238;-44
2021/04/19 00:42:54;;;;;;;9.10;8.20;;;;;21.60;100831.00;;;;2072435;28;20462;-45
2021/04/19 00:43:55;;;;;;;8.20;7.50;;;;;21.50;100837.00;;;;2069102;28;20218;-44
2021/04/19 00:44:55;;;;;;;7.97;7.27;;;;;21.60;100827.00;;;;2060980;28;20224;-44
2021/04/19 00:46:02;;;;;;;8.87;7.90;;;;;21.60;100832.00;;;;2066074;28;20322;-45
2021/04/19 00:47:02;;;;;;;8.48;7.78;;;;;21.60;100829.00;;;;2059543;28;20825;-44
2021/04/19 00:48:04;;;;;;;8.07;7.37;;;;;21.50;100832.00;;;;2067575;28;20219;-45
2021/04/19 00:49:04;;;;;;;7.80;7.20;;;;;21.50;100823.00;;;;2077660;28;20215;-44
2021/04/19 00:50:06;;;;;;;7.73;7.03;;;;;21.50;100835.00;;;;2077026;28;20247;-44
2021/04/19 00:51:06;;;;;;;7.85;7.15;;;;;21.50;100830.00;;;;2076976;28;20878;-44
2021/04/19 00:52:07;;;;;;;7.80;7.17;;;;;21.50;100827.00;;;;2077866;28;20252;-43
2021/04/19 00:53:07;;;;;;;7.80;7.20;;;;;21.50;100822.00;;;;2068638;28;20226;-44
2021/04/19 00:54:08;;;;;;;7.60;7.00;;;;;21.50;100823.00;;;;2068415;28;20210;-44
2021/04/19 00:55:11;;;;;;;7.10;6.50;;;;;21.50;100824.00;;;;2068288;28;20222;-44
2021/04/19 00:56:11;;;;;;;7.60;6.93;;;;;21.50;100817.00;;;;2067317;28;20859;-44
2021/04/19 00:57:11;;;;;;;7.17;6.57;;;;;21.50;100818.00;;;;2076746;28;20214;-44
2021/04/19 00:58:12;;;;;;;7.87;7.07;;;;;21.50;100817.00;;;;2068370;28;20246;-44
2021/04/19 00:59:13;;;;;;;7.97;7.27;;;;;21.50;100820.00;;;;2076953;28;20215;-44
2021/04/19 01:00:18;;;;;;;7.50;6.80;;;;;21.50;100813.00;;;;2077259;28;20218;-44
2021/04/19 01:01:19;;;;;;;7.75;7.05;;;;;21.50;100815.00;;;;2077689;28;20226;-44
2021/04/19 01:02:19;;;;;;;7.33;6.73;;;;;21.50;100816.00;;;;2076671;28;20211;-44
2021/04/19 01:03:20;;;;;;;6.47;5.97;;;;;21.50;100812.00;;;;2069321;28;20219;-44
2021/04/19 01:04:21;;;;;;;7.20;6.60;;;;;21.50;100810.00;;;;2067413;28;20219;-44
2021/04/19 01:05:24;;;;;;;6.77;6.17;;;;;21.40;100811.00;;;;2072879;28;21307;-44
2021/04/19 01:06:24;;;;;;;7.00;6.40;;;;;21.50;100823.00;;;;2072955;28;20266;-44
2021/04/19 01:07:24;;;;;;;7.47;6.77;;;;;21.50;100810.00;;;;2078172;28;20353;-44
2021/04/19 01:08:25;;;;;;;7.40;6.80;;;;;21.30;100819.00;;;;2070861;28;20302;-44
2021/04/19 01:09:26;;;;;;;7.00;6.40;;;;;21.50;100814.00;;;;2071139;28;20251;-44
2021/04/19 01:10:27;;;;;;;6.80;6.30;;;;;21.50;100826.00;;;;2070183;28;20731;-45
2021/04/19 01:11:27;;;;;;;6.50;6.00;;;;;21.50;100816.00;;;;2071139;28;20234;-44
2021/04/19 01:12:27;;;;;;;7.20;6.60;;;;;21.50;100818.00;;;;2070367;28;20446;-44
2021/04/19 01:13:28;;;;;;;7.33;6.73;;;;;21.50;100821.00;;;;2070121;28;20726;-44
2021/04/19 01:14:28;;;;;;;6.90;6.30;;;;;21.50;100816.00;;;;2071063;28;20965;-44
2021/04/19 01:15:28;;;;;;;6.83;6.23;;;;;21.50;100804.00;;;;2071026;28;20763;-44
2021/04/19 01:16:29;;;;;;;7.57;6.93;;;;;21.50;100820.00;;;;2069490;28;20286;-44
2021/04/19 01:17:29;;;;;;;6.70;6.20;;;;;21.50;100821.00;;;;2070870;28;20223;-45
2021/04/19 01:18:29;;;;;;;6.57;6.07;;;;;21.40;100813.00;;;;2076220;28;20284;-44
2021/04/19 01:19:30;;;;;;;6.83;6.30;;;;;21.50;100810.00;;;;2073837;28;20219;-44
2021/04/19 01:20:32;;;;;;;7.00;6.40;;;;;21.50;100814.00;;;;2073558;28;20711;-44
2021/04/19 01:21:32;;;;;;;6.45;5.95;;;;;21.50;100815.00;;;;2070275;28;20247;-45
2021/04/19 01:22:33;;;;;;;7.00;6.40;;;;;21.50;100815.00;;;;2070666;28;20230;-46
2021/04/19 01:23:33;;;;;;;6.40;5.90;;;;;21.50;100824.00;;;;2070541;28;20220;-45
2021/04/19 01:24:33;;;;;;;6.97;6.37;;;;;21.40;100820.00;;;;2070485;28;20218;-45
2021/04/19 01:25:34;;;;;;;6.70;6.10;;;;;21.40;100812.00;;;;2070930;28;20223;-45
2021/04/19 01:26:34;;;;;;;6.40;5.90;;;;;21.40;100828.00;;;;2067879;28;20228;-45
2021/04/19 01:27:35;;;;;;;6.23;5.70;;;;;21.40;100816.00;;;;2070946;28;20413;-44
2021/04/19 01:28:35;;;;;;;6.43;5.93;;;;;21.40;100818.00;;;;2070596;28;20226;-45
2021/04/19 01:29:35;;;;;;;5.83;5.33;;;;;21.40;100813.00;;;;2071138;28;20211;-44
2021/04/19 01:30:40;;;;;;;5.67;5.13;;;;;21.40;100826.00;;;;2070250;28;20216;-44
2021/04/19 01:31:41;;;;;;;6.25;5.75;;;;;21.40;100826.00;;;;2070414;28;20275;-44
2021/04/19 01:32:42;;;;;;;6.80;6.20;;;;;21.40;100818.00;;;;2070083;28;20276;-44
2021/04/19 01:33:42;;;;;;;5.32;4.93;;;;;21.40;100820.00;;;;2073294;28;20203;-45
2021/04/19 01:34:43;;;;;;;6.50;6.00;;;;;21.50;100822.00;;;;2073231;28;20199;-44
2021/04/19 01:35:44;;;;;;;5.90;5.40;;;;;21.40;100820.00;;;;2070232;28;20207;-44
2021/04/19 01:36:46;;;;;;;6.20;5.70;;;;;21.40;100823.00;;;;2069604;28;20221;-44
2021/04/19 01:37:46;;;;;;;6.55;5.95;;;;;21.40;100819.00;;;;2070846;28;20215;-44
2021/04/19 01:38:46;;;;;;;6.37;5.87;;;;;21.40;100822.00;;;;2070471;28;20579;-44
2021/04/19 01:39:47;;;;;;;6.00;5.50;;;;;21.40;100821.00;;;;2071176;28;20241;-44
2021/04/19 01:40:49;;;;;;;6.20;5.80;;;;;21.40;100823.00;;;;2070876;28;20275;-44
2021/04/19 01:41:49;;;;;;;5.72;5.32;;;;;21.40;100824.00;;;;2069851;28;21149;-44
2021/04/19 01:42:50;;;;;;;6.00;5.53;;;;;21.40;100816.00;;;;2070214;28;20218;-43
2021/04/19 01:43:50;;;;;;;6.20;5.70;;;;;21.40;100816.00;;;;2067119;28;20373;-44
2021/04/19 01:44:50;;;;;;;5.90;5.37;;;;;21.40;100818.00;;;;2070918;28;20224;-45
2021/04/19 01:45:51;;;;;;;5.80;5.30;;;;;21.40;100817.00;;;;2070640;28;20298;-44
2021/04/19 01:46:52;;;;;;;5.77;5.37;;;;;21.40;100815.00;;;;2068948;28;20231;-44
2021/04/19 01:47:55;;;;;;;5.97;5.47;;;;;21.40;100823.00;;;;2076259;28;20222;-44
2021/04/19 01:48:55;;;;;;;5.72;5.22;;;;;21.40;100814.00;;;;2075491;28;20251;-44
2021/04/19 01:49:55;;;;;;;6.10;5.60;;;;;21.40;100819.00;;;;2073762;28;20219;-44
2021/04/19 01:50:56;;;;;;;5.83;5.43;;;;;21.40;100812.00;;;;2072097;28;20215;-44
2021/04/19 01:51:57;;;;;;;6.03;5.53;;;;;21.40;100816.00;;;;2071826;28;20271;-44
2021/04/19 01:52:58;;;;;;;5.80;5.30;;;;;21.40;100822.00;;;;2070725;28;20467;-44
2021/04/19 01:53:58;;;;;;;5.60;5.20;;;;;21.40;100813.00;;;;2070698;28;20214;-44
2021/04/19 01:54:59;;;;;;;5.13;4.73;;;;;21.40;100826.00;;;;2070407;28;20299;-44
2021/04/19 01:55:59;;;;;;;5.13;4.80;;;;;21.40;100824.00;;;;2070395;28;20216;-44
2021/04/19 01:57:00;;;;;;;5.70;5.30;;;;;21.40;100816.00;;;;2069318;28;20226;-44
2021/04/19 01:58:03;;;;;;;6.20;5.70;;;;;21.40;100816.00;;;;2070673;28;20215;-44
2021/04/19 01:59:03;;;;;;;5.88;5.38;;;;;21.40;100818.00;;;;2069345;28;20246;-44
2021/04/19 02:00:05;;;;;;;5.73;5.23;;;;;21.40;100820.00;;;;2062210;28;20314;-44
2021/04/19 02:01:06;;;;;;;5.80;5.40;;;;;21.40;100820.00;;;;2070523;28;20231;-44
2021/04/19 02:02:32;;;;;;;5.47;5.00;;;;;21.40;100814.00;;;;2074783;28;20223;-44
2021/04/19 02:04:05;;;;;;;5.75;5.25;;;;;21.40;100814.00;;;;2078644;28;20223;-44
2021/04/19 02:05:15;;;;;;;5.20;4.80;;;;;21.40;100817.00;;;;2059398;28;20255;-45
2021/04/19 02:06:43;;;;;;;5.32;4.93;;;;;21.40;100816.00;;;;2076943;28;20222;-44
2021/04/19 02:07:51;;;;;;;5.60;5.20;;;;;21.40;100817.00;;;;2077561;28;20215;-44
2021/04/19 02:09:13;;;;;;;5.80;5.30;;;;;21.40;100772.00;;;;2070415;28;20298;-44
2021/04/19 02:10:22;;;;;;;5.75;5.25;;;;;21.40;100810.00;;;;2075523;28;20226;-44
2021/04/19 02:11:32;;;;;;;5.68;5.22;;;;;21.40;100821.00;;;;2078507;28;20324;-44
2021/04/19 02:12:38;;;;;;;5.75;5.25;;;;;21.40;100816.00;;;;2077523;28;20349;-44
2021/04/19 02:13:51;;;;;;;5.70;5.22;;;;;21.40;100821.00;;;;2070280;28;20322;-44
2021/04/19 02:14:52;;;;;;;5.93;5.43;;;;;21.40;100816.00;;;;2072024;28;20215;-44
2021/04/19 02:15:58;;;;;;;5.90;5.50;;;;;21.40;100818.00;;;;2078009;28;20731;-44
2021/04/19 02:17:30;;;;;;;5.57;5.07;;;;;21.40;100825.00;;;;2075605;28;20218;-44
2021/04/19 02:18:46;;;;;;;6.03;5.53;;;;;21.30;100819.00;;;;2072664;28;20310;-44
2021/04/19 02:20:05;;;;;;;5.25;4.85;;;;;21.30;100820.00;;;;2074237;28;20210;-44
2021/04/19 02:21:08;;;;;;;4.90;4.50;;;;;21.30;100823.00;;;;2071459;28;20861;-44
2021/04/19 02:22:18;;;;;;;5.68;5.28;;;;;21.30;100812.00;;;;2067431;28;20222;-45
2021/04/19 02:23:21;;;;;;;5.30;4.90;;;;;21.30;100817.00;;;;2067147;28;20217;-44
2021/04/19 02:24:22;;;;;;;5.57;5.13;;;;;21.30;100820.00;;;;2070669;28;20216;-43
2021/04/19 02:25:30;;;;;;;5.70;5.20;;;;;21.30;100815.00;;;;2074764;28;21156;-45
2021/04/19 02:26:31;;;;;;;6.00;5.60;;;;;21.30;100814.00;;;;2066111;28;20216;-44
2021/04/19 02:27:37;;;;;;;5.85;5.38;;;;;21.30;100823.00;;;;2069741;28;20223;-44
2021/04/19 02:28:40;;;;;;;5.47;5.07;;;;;21.30;100824.00;;;;2069743;28;20217;-44
2021/04/19 02:29:46;;;;;;;5.47;5.07;;;;;21.30;100826.00;;;;2069563;28;20213;-45
2021/04/19 02:30:48;;;;;;;5.70;5.30;;;;;21.30;100822.00;;;;2070176;28;20254;-44
2021/04/19 02:31:52;;;;;;;6.07;5.57;;;;;21.30;100825.00;;;;2061781;28;20295;-44
2021/04/19 02:32:52;;;;;;;5.88;5.38;;;;;21.30;100826.00;;;;2062010;28;20234;-44
2021/04/19 02:33:53;;;;;;;5.77;5.27;;;;;21.30;100822.00;;;;2061783;28;20223;-44
2021/04/19 02:34:56;;;;;;;6.40;5.90;;;;;21.30;100818.00;;;;2069587;28;20209;-44
2021/04/19 02:35:57;;;;;;;5.53;5.13;;;;;21.30;100821.00;;;;2070212;28;20618;-44
2021/04/19 02:36:57;;;;;;;5.80;5.40;;;;;21.30;100828.00;;;;2061673;28;20258;-44
2021/04/19 02:37:58;;;;;;;6.00;5.50;;;;;21.30;100826.00;;;;2070108;28;20307;-44
2021/04/19 02:38:58;;;;;;;6.17;5.67;;;;;21.30;100823.00;;;;2069283;28;20238;-43
2021/04/19 02:39:59;;;;;;;5.80;5.40;;;;;21.30;100824.00;;;;2067953;28;20298;-44
2021/04/19 02:41:00;;;;;;;5.97;5.47;;;;;21.30;100778.00;;;;2060209;28;20216;-44
2021/04/19 02:42:01;;;;;;;5.60;5.15;;;;;21.30;100832.00;;;;2059932;28;20655;-44
2021/04/19 02:43:01;;;;;;;6.53;6.03;;;;;21.30;100828.00;;;;2061346;28;20219;-44
2021/04/19 02:44:01;;;;;;;6.10;5.60;;;;;21.30;100827.00;;;;2069875;28;20306;-44
2021/04/19 02:45:02;;;;;;;5.67;5.27;;;;;21.30;100820.00;;;;2070175;28;20689;-44
2021/04/19 02:46:03;;;;;;;6.05;5.55;;;;;21.30;100829.00;;;;2069728;28;20232;-44
2021/04/19 02:47:04;;;;;;;6.43;5.93;;;;;21.30;100825.00;;;;2068214;28;20209;-44
2021/04/19 02:48:05;;;;;;;6.78;6.20;;;;;21.30;100829.00;;;;2069688;28;20235;-44
2021/04/19 02:49:05;;;;;;;5.80;5.40;;;;;21.30;100832.00;;;;2073399;28;20220;-44
2021/04/19 02:50:06;;;;;;;6.07;5.67;;;;;21.30;100827.00;;;;2069456;28;20335;-44
2021/04/19 02:51:07;;;;;;;5.85;5.43;;;;;21.30;100820.00;;;;2069380;28;20212;-44
2021/04/19 02:52:08;;;;;;;6.70;6.13;;;;;21.20;100828.00;;;;2073322;28;20233;-44
2021/04/19 02:53:08;;;;;;;6.60;6.00;;;;;21.30;100825.00;;;;2061771;28;20508;-44
2021/04/19 02:54:09;;;;;;;6.87;6.37;;;;;21.30;100834.00;;;;2061369;28;20282;-45
2021/04/19 02:55:10;;;;;;;5.93;5.43;;;;;21.30;100826.00;;;;2061411;28;20230;-44
2021/04/19 02:56:10;;;;;;;6.47;5.97;;;;;21.30;100827.00;;;;2068918;28;20222;-44
2021/04/19 02:57:23;;;;;;;6.23;5.83;;;;;21.30;100826.00;;;;2066157;28;20216;-44
2021/04/19 02:58:29;;;;;;;7.03;6.53;;;;;21.30;100826.00;;;;2073419;28;20238;-45
2021/04/19 02:59:30;;;;;;;6.53;6.03;;;;;21.30;100823.00;;;;2061671;28;20351;-44
2021/04/19 03:00:34;;;;;;;6.67;6.17;;;;;21.30;100823.00;;;;2061702;28;20216;-44
2021/04/19 03:01:35;;;;;;;6.45;5.95;;;;;21.30;100825.00;;;;2075569;28;20226;-44
2021/04/19 03:02:36;;;;;;;5.78;5.38;;;;;21.30;100821.00;;;;2076869;28;20249;-44
2021/04/19 03:03:37;;;;;;;6.13;5.70;;;;;21.30;100825.00;;;;2069695;28;20692;-44
2021/04/19 03:04:38;;;;;;;6.30;5.80;;;;;21.30;100821.00;;;;2076878;28;20338;-44
2021/04/19 03:05:38;;;;;;;7.03;6.43;;;;;21.10;100825.00;;;;2069629;28;20229;-44
2021/04/19 03:06:40;;;;;;;6.40;5.90;;;;;21.30;100826.00;;;;2067926;28;20730;-44
2021/04/19 03:07:45;;;;;;;6.60;6.10;;;;;21.30;100824.00;;;;2067743;28;20324;-44
2021/04/19 03:08:56;;;;;;;6.43;5.90;;;;;21.30;100823.00;;;;2061387;28;20224;-44
2021/04/19 03:09:58;;;;;;;6.50;6.00;;;;;21.30;100825.00;;;;2057536;28;20768;-44
2021/04/19 03:11:23;;;;;;;6.82;6.32;;;;;21.30;100818.00;;;;2054248;28;20217;-44
2021/04/19 03:12:24;;;;;;;6.40;5.93;;;;;21.30;100829.00;;;;2067727;28;20214;-44
2021/04/19 03:13:25;;;;;;;7.03;6.53;;;;;21.30;100830.00;;;;2071773;28;20215;-44
2021/04/19 03:14:29;;;;;;;6.63;6.13;;;;;21.30;100826.00;;;;2061383;28;20258;-44
2021/04/19 03:15:37;;;;;;;6.50;6.00;;;;;21.20;100812.00;;;;2069116;28;20602;-44
2021/04/19 03:16:38;;;;;;;7.47;6.78;;;;;21.20;100816.00;;;;2059826;28;20267;-44
2021/04/19 03:17:38;;;;;;;6.67;6.07;;;;;21.20;100817.00;;;;2063729;28;20355;-44
2021/04/19 03:18:39;;;;;;;6.37;5.87;;;;;21.20;100801.00;;;;2061146;28;20555;-44
2021/04/19 03:19:43;;;;;;;6.27;5.80;;;;;21.20;100813.00;;;;2061276;28;20748;-44
2021/04/19 03:21:12;;;;;;;6.80;6.20;;;;;21.20;100817.00;;;;2060762;28;20771;-44
2021/04/19 03:22:12;;;;;;;7.20;6.70;;;;;21.20;100817.00;;;;2072633;28;20226;-44
2021/04/19 03:23:13;;;;;;;7.20;6.70;;;;;21.20;100816.00;;;;2077933;28;20238;-44
2021/04/19 03:24:14;;;;;;;6.82;6.28;;;;;21.20;100809.00;;;;2077259;28;20216;-44
2021/04/19 03:25:14;;;;;;;6.97;6.33;;;;;21.20;100808.00;;;;2069484;28;21039;-44
2021/04/19 03:26:16;;;;;;;5.97;5.50;;;;;21.20;100808.00;;;;2076056;28;20336;-44
2021/04/19 03:27:16;;;;;;;5.97;5.57;;;;;21.20;100811.00;;;;2069392;28;20219;-44
2021/04/19 03:28:17;;;;;;;6.60;6.10;;;;;21.20;100809.00;;;;2067008;28;20668;-44
2021/04/19 03:29:17;;;;;;;7.40;6.70;;;;;21.20;100806.00;;;;2066422;28;20615;-46
2021/04/19 03:30:18;;;;;;;5.83;5.43;;;;;21.20;100811.00;;;;2053579;28;20244;-45
2021/04/19 03:31:26;;;;;;;6.23;5.73;;;;;21.20;100808.00;;;;2051386;28;20216;-44
2021/04/19 03:32:29;;;;;;;6.32;5.90;;;;;21.20;100812.00;;;;2066676;28;20509;-44
2021/04/19 03:33:29;;;;;;;6.90;6.40;;;;;21.20;100815.00;;;;2069007;28;20223;-44
2021/04/19 03:34:30;;;;;;;7.00;6.47;;;;;21.20;100809.00;;;;2069606;28;20334;-44
2021/04/19 03:35:34;;;;;;;6.35;5.90;;;;;21.20;100814.00;;;;2069593;28;20245;-44
2021/04/19 03:36:35;;;;;;;6.13;5.72;;;;;21.20;100812.00;;;;2064892;28;20219;-44
2021/04/19 03:37:36;;;;;;;7.27;6.77;;;;;21.20;100814.00;;;;2069440;28;20226;-44
2021/04/19 03:38:36;;;;;;;7.50;6.90;;;;;21.20;100811.00;;;;2069343;28;20309;-44
2021/04/19 03:39:37;;;;;;;6.77;6.27;;;;;21.20;100805.00;;;;2069112;28;20220;-44
2021/04/19 03:40:37;;;;;;;6.33;5.83;;;;;21.20;100814.00;;;;2069235;28;20215;-44
2021/04/19 03:41:40;;;;;;;7.47;6.87;;;;;21.20;100807.00;;;;2077274;28;20219;-44
2021/04/19 03:42:41;;;;;;;7.10;6.50;;;;;21.20;100807.00;;;;2065554;28;20215;-44
2021/04/19 03:43:42;;;;;;;6.53;6.03;;;;;21.20;100805.00;;;;2069499;28;20301;-44
2021/04/19 03:44:43;;;;;;;6.65;6.15;;;;;21.20;100799.00;;;;2077142;28;20226;-44
2021/04/19 03:45:43;;;;;;;6.17;5.77;;;;;21.20;100805.00;;;;2069521;28;20223;-44
2021/04/19 03:46:44;;;;;;;6.53;6.03;;;;;21.10;100804.00;;;;2067479;28;20291;-44
2021/04/19 03:47:44;;;;;;;7.33;6.83;;;;;21.20;100809.00;;;;2077608;28;20208;-44
2021/04/19 03:48:44;;;;;;;6.67;6.17;;;;;21.20;100808.00;;;;2076749;28;20203;-44
2021/04/19 03:49:48;;;;;;;6.70;6.20;;;;;21.00;100802.00;;;;2077517;28;20347;-44
2021/04/19 03:51:02;;;;;;;6.80;6.30;;;;;21.20;100809.00;;;;2069747;28;20673;-44
2021/04/19 03:52:04;;;;;;;7.53;6.93;;;;;21.20;100808.00;;;;2062381;28;20577;-44
2021/04/19 03:53:04;;;;;;;6.65;6.15;;;;;21.20;100807.00;;;;2053626;28;20227;-44
2021/04/19 03:54:05;;;;;;;6.93;6.43;;;;;21.20;100797.00;;;;2075053;28;20218;-44
2021/04/19 03:55:08;;;;;;;7.23;6.70;;;;;21.20;100799.00;;;;2062784;28;20223;-44
2021/04/19 03:56:09;;;;;;;7.43;6.82;;;;;21.20;100807.00;;;;2067967;28;20215;-44
2021/04/19 03:57:10;;;;;;;7.33;6.73;;;;;21.20;100804.00;;;;2055944;28;20216;-44
2021/04/19 03:58:11;;;;;;;7.35;6.82;;;;;21.20;100805.00;;;;2044979;28;20233;-44
2021/04/19 03:59:13;;;;;;;7.30;6.70;;;;;21.20;100799.00;;;;2054926;28;20356;-44
2021/04/19 04:00:17;;;;;;;7.45;6.85;;;;;21.20;100803.00;;;;2069134;28;20237;-44
2021/04/19 04:01:17;;;;;;;7.03;6.53;;;;;21.20;100801.00;;;;2060867;28;20599;-44
2021/04/19 04:02:18;;;;;;;7.00;6.40;;;;;21.20;100802.00;;;;2057446;28;20209;-44
2021/04/19 04:03:18;;;;;;;8.03;7.33;;;;;21.20;100801.00;;;;2068885;28;20226;-44
2021/04/19 04:04:18;;;;;;;7.33;6.73;;;;;21.20;100799.00;;;;2074790;28;20223;-44
2021/04/19 04:05:19;;;;;;;7.80;7.13;;;;;21.20;100805.00;;;;2068773;28;20222;-44
2021/04/19 04:06:19;;;;;;;7.70;7.00;;;;;21.20;100806.00;;;;2059440;28;20231;-44
2021/04/19 04:07:20;;;;;;;6.47;5.97;;;;;21.20;100811.00;;;;2068976;28;20218;-44
2021/04/19 04:08:20;;;;;;;6.80;6.30;;;;;21.20;100802.00;;;;2068905;28;20222;-44
2021/04/19 04:09:21;;;;;;;7.20;6.70;;;;;21.20;100804.00;;;;2060548;28;20669;-44
2021/04/19 04:10:21;;;;;;;6.70;6.20;;;;;21.20;100805.00;;;;2077041;28;20229;-44
2021/04/19 04:11:22;;;;;;;7.00;6.50;;;;;21.20;100803.00;;;;2077239;28;20311;-44
2021/04/19 04:12:22;;;;;;;7.77;7.20;;;;;21.20;100803.00;;;;2074493;28;20216;-44
2021/04/19 04:13:23;;;;;;;7.00;6.50;;;;;21.10;100803.00;;;;2052164;28;20216;-44
2021/04/19 04:14:24;;;;;;;7.90;7.30;;;;;21.10;100803.00;;;;2061039;28;21078;-44
2021/04/19 04:15:24;;;;;;;7.10;6.60;;;;;21.20;100809.00;;;;2069860;28;20300;-44
2021/04/19 04:16:25;;;;;;;7.70;7.10;;;;;21.20;100812.00;;;;2068380;28;20219;-47
2021/04/19 04:17:25;;;;;;;6.90;6.40;;;;;21.20;100811.00;;;;2069679;28;20625;-45
2021/04/19 04:18:25;;;;;;;8.07;7.47;;;;;21.10;100809.00;;;;2069743;28;20227;-46
2021/04/19 04:19:26;;;;;;;8.10;7.50;;;;;21.10;100807.00;;;;2069421;28;20223;-46
2021/04/19 04:20:26;;;;;;;7.17;6.60;;;;;21.10;100810.00;;;;2065595;28;20226;-45
2021/04/19 04:21:26;;;;;;;7.60;7.00;;;;;21.10;100811.00;;;;2070151;28;20226;-45
2021/04/19 04:22:27;;;;;;;7.90;7.30;;;;;21.10;100807.00;;;;2072367;28;20214;-44
2021/04/19 04:23:27;;;;;;;7.20;6.70;;;;;21.10;100812.00;;;;2055034;28;20740;-45
2021/04/19 04:24:28;;;;;;;7.77;7.17;;;;;21.10;100813.00;;;;2047202;28;20953;-44
2021/04/19 04:25:28;;;;;;;7.60;7.10;;;;;21.10;100813.00;;;;2055247;28;20224;-45
2021/04/19 04:26:29;;;;;;;7.20;6.70;;;;;21.10;100814.00;;;;2059792;28;20233;-45
2021/04/19 04:27:29;;;;;;;8.10;7.40;;;;;21.10;100809.00;;;;2068101;28;20310;-45
2021/04/19 04:28:30;;;;;;;8.00;7.33;;;;;21.10;100806.00;;;;2073252;28;20221;-44
2021/04/19 04:29:31;;;;;;;7.90;7.30;;;;;21.10;100810.00;;;;2074402;28;20270;-45
2021/04/19 04:30:34;;;;;;;8.93;8.23;;;;;21.10;100810.00;;;;2077473;28;20660;-45
2021/04/19 04:31:34;;;;;;;7.78;7.20;;;;;21.10;100818.00;;;;2073397;28;20644;-44
2021/04/19 04:32:35;;;;;;;8.13;7.53;;;;;21.10;100816.00;;;;2069478;28;20231;-45
2021/04/19 04:33:35;;;;;;;8.67;7.97;;;;;21.10;100819.00;;;;2077052;28;20238;-44
2021/04/19 04:34:35;;;;;;;7.73;7.13;;;;;21.10;100814.00;;;;2077302;28;20222;-44
2021/04/19 04:35:36;;;;;;;8.47;7.77;;;;;21.10;100822.00;;;;2077424;28;20387;-44
2021/04/19 04:36:37;;;;;;;7.50;6.90;;;;;21.10;100816.00;;;;2076394;28;20222;-44
2021/04/19 04:37:37;;;;;;;8.47;7.80;;;;;21.10;100795.00;;;;2077278;28;20806;-44
2021/04/19 04:38:37;;;;;;;9.13;8.43;;;;;21.10;100822.00;;;;2077907;28;20633;-44
2021/04/19 04:39:37;;;;;;;8.20;7.60;;;;;21.10;100814.00;;;;2079380;28;20525;-44
2021/04/19 04:40:38;;;;;;;8.00;7.30;;;;;21.10;100809.00;;;;2079970;28;20218;-44
2021/04/19 04:41:38;;;;;;;7.93;7.23;;;;;21.10;100818.00;;;;2080006;28;20246;-44
2021/04/19 04:42:39;;;;;;;8.83;8.13;;;;;21.10;100818.00;;;;2075523;28;20221;-44
2021/04/19 04:43:39;;;;;;;7.77;7.17;;;;;21.10;100777.00;;;;2068444;28;20723;-44
2021/04/19 04:44:41;;;;;;;9.07;8.47;;;;;21.10;100818.00;;;;2063825;28;20227;-44
2021/04/19 04:45:42;;;;;;;8.02;7.47;;;;;21.10;100819.00;;;;2079868;28;20314;-44
2021/04/19 04:46:52;;;;;;;7.97;7.37;;;;;21.10;100823.00;;;;2079482;28;20570;-44
2021/04/19 04:48:00;;;;;;;8.43;7.75;;;;;21.00;100822.00;;;;2076609;28;20214;-44
2021/04/19 04:49:12;;;;;;;8.90;8.20;;;;;21.10;100821.00;;;;2065904;28;20362;-46
2021/04/19 04:50:21;;;;;;;8.65;7.95;;;;;21.10;100821.00;;;;2067163;28;20257;-44
2021/04/19 04:51:22;;;;;;;8.40;7.72;;;;;21.10;100821.00;;;;2072341;28;20226;-44
2021/04/19 04:52:22;;;;;;;8.17;7.57;;;;;21.10;100825.00;;;;2072378;28;20249;-44
2021/04/19 04:53:27;;;;;;;8.53;7.90;;;;;21.10;100816.00;;;;2071565;28;20216;-44
2021/04/19 04:54:27;;;;;;;7.70;7.10;;;;;21.10;100817.00;;;;2079538;28;20220;-44
2021/04/19 04:55:27;;;;;;;8.13;7.50;;;;;21.10;100815.00;;;;2070818;28;20222;-43
2021/04/19 04:56:32;;;;;;;8.70;8.00;;;;;21.10;100816.00;;;;2069980;28;20242;-44
2021/04/19 04:57:32;;;;;;;8.18;7.57;;;;;21.10;100814.00;;;;2062243;28;20223;-44
2021/04/19 04:58:36;;;;;;;8.67;8.07;;;;;21.10;100822.00;;;;2064946;28;20310;-45
2021/04/19 04:59:36;;;;;;;8.63;7.97;;;;;21.00;100822.00;;;;2068658;28;20222;-45
2021/04/19 05:00:37;;;;;;;7.67;7.07;;;;;21.10;100821.00;;;;2063576;28;20242;-44
2021/04/19 05:01:37;;;;;;;8.40;7.70;;;;;21.10;100818.00;;;;2059204;28;20225;-45
2021/04/19 05:02:37;;;;;;;8.30;7.70;;;;;21.10;100821.00;;;;2067879;28;20245;-44
2021/04/19 05:03:38;;;;;;;8.60;7.90;;;;;21.10;100814.00;;;;2055218;28;20251;-44
2021/04/19 05:04:38;;;;;;;8.70;8.10;;;;;21.10;100813.00;;;;2071247;28;20230;-44
2021/04/19 05:05:39;;;;;;;7.37;6.77;;;;;21.10;100814.00;;;;2079596;28;20221;-44
2021/04/19 05:06:40;;;;;;;8.90;8.10;;;;;21.10;100818.00;;;;2070702;28;20241;-44
2021/04/19 05:07:41;;;;;;;9.10;8.40;;;;;21.10;100815.00;;;;2074509;28;20873;-44